createdAt,value
2022-12-13T00:00:10.646Z,39.92
2022-12-13T00:01:21.017Z,37.30
2022-12-13T00:02:27.127Z,32.49
2022-12-13T00:03:31.138Z,31.00
2022-12-13T00:04:37.335Z,30.71
2022-12-13T00:05:46.463Z,32.03
2022-12-13T00:06:55.350Z,28.13
2022-12-13T00:07:59.588Z,27.89
2022-12-13T00:09:07.347Z,27.67
2022-12-13T00:10:14.138Z,29.29
2022-12-13T00:11:18.013Z,26.78
2022-12-13T00:12:25.239Z,25.51
2022-12-13T00:13:29.293Z,23.58
2022-12-13T00:14:35.539Z,24.81
2022-12-13T00:15:40.087Z,22.83
2022-12-13T00:16:49.763Z,21.73
2022-12-13T00:17:53.970Z,23.31
2022-12-13T00:19:02.989Z,23.79
2022-12-13T00:20:07.603Z,23.07
2022-12-13T00:21:21.150Z,23.02
2022-12-13T00:22:25.463Z,22.56
2022-12-13T00:23:32.458Z,22.27
2022-12-13T00:24:44.381Z,18.67
2022-12-13T00:25:49.511Z,18.44
2022-12-13T00:26:59.169Z,19.59
2022-12-13T00:28:02.487Z,21.87
2022-12-13T00:29:11.594Z,24.34
2022-12-13T00:30:15.151Z,24.65
2022-12-13T00:32:49.532Z,22.64
2022-12-13T00:33:53.647Z,22.39
2022-12-13T00:35:00.550Z,20.62
2022-12-13T00:36:07.862Z,20.10
2022-12-13T00:37:16.449Z,19.18
2022-12-13T00:38:20.137Z,19.87
2022-12-13T00:39:26.374Z,20.00
2022-12-13T00:40:33.176Z,20.22
2022-12-13T00:41:37.525Z,20.42
2022-12-13T00:42:43.499Z,18.49
2022-12-13T00:43:47.973Z,16.51
2022-12-13T00:44:53.975Z,17.05
2022-12-13T00:45:58.310Z,17.02
2022-12-13T00:47:04.290Z,16.91
2022-12-13T00:48:07.786Z,16.26
2022-12-13T00:49:16.132Z,16.71
2022-12-13T00:50:22.532Z,15.14
2022-12-13T00:51:29.126Z,15.19
2022-12-13T00:52:38.224Z,16.74
2022-12-13T00:53:41.954Z,16.56
2022-12-13T00:54:47.909Z,18.02
2022-12-13T00:55:51.278Z,17.84
2022-12-13T00:56:58.210Z,18.17
2022-12-13T00:58:01.500Z,18.34
2022-12-13T00:59:08.563Z,16.69
2022-12-13T01:00:15.794Z,16.59
2022-12-13T01:01:24.782Z,17.11
2022-12-13T01:02:31.567Z,17.45
2022-12-13T01:03:35.343Z,16.79
2022-12-13T01:04:41.373Z,16.49
2022-12-13T01:06:13.649Z,16.14
2022-12-13T01:07:10.576Z,16.20
2022-12-13T01:08:17.391Z,17.14
2022-12-13T01:09:30.095Z,15.61
2022-12-13T01:10:33.417Z,15.76
2022-12-13T01:11:39.316Z,17.31
2022-12-13T01:12:42.703Z,15.98
2022-12-13T01:13:49.626Z,16.02
2022-12-13T01:14:56.317Z,17.59
2022-12-13T01:16:04.729Z,17.95
2022-12-13T01:17:11.772Z,17.55
2022-12-13T01:18:18.537Z,16.56
2022-12-13T01:19:25.943Z,16.44
2022-12-13T01:20:29.187Z,15.44
2022-12-13T01:21:35.793Z,17.42
2022-12-13T01:22:41.857Z,17.83
2022-12-13T01:23:48.481Z,17.59
2022-12-13T01:24:55.284Z,17.81
2022-12-13T01:25:58.798Z,16.43
2022-12-13T01:27:04.821Z,18.11
2022-12-13T01:28:08.092Z,19.20
2022-12-13T01:29:17.018Z,18.11
2022-12-13T01:30:21.145Z,19.67
2022-12-13T01:31:28.241Z,18.26
2022-12-13T01:32:34.135Z,17.56
2022-12-13T01:33:39.320Z,15.80
2022-12-13T01:34:45.312Z,14.82
2022-12-13T01:35:49.845Z,15.41
2022-12-13T01:36:58.102Z,15.38
2022-12-13T01:38:02.338Z,15.39
2022-12-13T01:39:26.665Z,15.84
2022-12-13T01:40:32.981Z,17.01
2022-12-13T01:41:47.717Z,17.65
2022-12-13T01:42:51.023Z,16.04
2022-12-13T01:44:03.438Z,15.89
2022-12-13T01:45:27.369Z,16.43
2022-12-13T01:46:32.584Z,17.09
2022-12-13T01:47:48.886Z,17.33
2022-12-13T01:49:05.529Z,17.74
2022-12-13T01:50:35.588Z,19.22
2022-12-13T01:51:48.169Z,16.35
2022-12-13T01:53:00.213Z,16.92
2022-12-13T01:54:09.050Z,15.91
2022-12-13T01:55:23.217Z,15.01
2022-12-13T01:56:37.140Z,15.15
2022-12-13T01:57:50.076Z,14.96
2022-12-13T01:58:58.397Z,15.05
2022-12-13T02:00:05.083Z,14.65
2022-12-13T02:01:11.106Z,15.70
2022-12-13T02:02:19.295Z,15.85
2022-12-13T02:03:23.904Z,16.58
2022-12-13T02:04:44.242Z,15.46
2022-12-13T02:06:01.178Z,17.41
2022-12-13T02:07:07.808Z,18.19
2022-12-13T02:08:19.850Z,18.80
2022-12-13T02:09:24.306Z,18.99
2022-12-13T02:10:35.633Z,21.44
2022-12-13T02:11:43.855Z,22.55
2022-12-13T02:12:54.497Z,20.70
2022-12-13T02:13:57.982Z,21.57
2022-12-13T02:15:11.964Z,21.90
2022-12-13T02:16:44.638Z,21.09
2022-12-13T02:18:24.196Z,21.52
2022-12-13T02:20:22.520Z,21.01
2022-12-13T02:21:50.194Z,22.26
2022-12-13T02:23:40.032Z,21.86
2022-12-13T02:25:09.105Z,21.10
2022-12-13T02:27:01.228Z,21.28
2022-12-13T02:28:38.423Z,21.37
2022-12-13T02:30:30.748Z,20.80
2022-12-13T02:31:51.146Z,20.45
2022-12-13T02:33:32.813Z,21.88
2022-12-13T02:34:46.501Z,21.25
2022-12-13T02:36:05.909Z,20.57
2022-12-13T02:37:26.696Z,21.39
2022-12-13T02:38:47.849Z,23.88
2022-12-13T02:40:05.688Z,22.40
2022-12-13T02:41:23.816Z,22.73
2022-12-13T02:42:41.529Z,21.80
2022-12-13T02:44:01.251Z,21.42
2022-12-13T02:45:20.511Z,21.34
2022-12-13T02:46:38.934Z,22.12
2022-12-13T02:47:44.606Z,20.99
2022-12-13T02:48:58.077Z,22.76
2022-12-13T02:50:10.013Z,22.66
2022-12-13T02:51:20.733Z,22.84
2022-12-13T02:52:31.508Z,21.42
2022-12-13T02:53:41.495Z,21.50
2022-12-13T02:54:45.052Z,21.74
2022-12-13T02:55:51.683Z,21.92
2022-12-13T02:56:56.886Z,22.84
2022-12-13T02:58:02.820Z,21.53
2022-12-13T02:59:17.871Z,20.50
2022-12-13T03:00:37.907Z,20.45
2022-12-13T03:02:11.982Z,20.40
2022-12-13T03:03:38.796Z,21.65
2022-12-13T03:05:17.633Z,21.89
2022-12-13T03:06:47.676Z,21.88
2022-12-13T03:08:13.402Z,22.15
2022-12-13T03:09:43.170Z,20.98
2022-12-13T03:11:03.940Z,20.20
2022-12-13T03:12:41.692Z,19.96
2022-12-13T03:13:58.504Z,20.15
2022-12-13T03:15:18.707Z,19.38
2022-12-13T03:16:36.687Z,19.69
2022-12-13T03:17:55.089Z,19.29
2022-12-13T03:19:03.155Z,19.65
2022-12-13T03:20:23.312Z,19.86
2022-12-13T03:21:30.155Z,19.72
2022-12-13T03:22:35.224Z,18.98
2022-12-13T03:23:42.037Z,18.84
2022-12-13T03:24:45.614Z,19.82
2022-12-13T03:25:58.512Z,19.82
2022-12-13T03:27:02.153Z,19.61
2022-12-13T03:28:08.703Z,18.84
2022-12-13T03:29:12.045Z,17.68
2022-12-13T03:30:18.007Z,18.79
2022-12-13T03:31:25.770Z,18.62
2022-12-13T03:32:29.232Z,18.80
2022-12-13T03:33:38.982Z,18.82
2022-12-13T03:34:44.221Z,18.20
2022-12-13T03:35:53.074Z,17.68
2022-12-13T03:37:00.024Z,19.27
2022-12-13T03:38:05.845Z,17.69
2022-12-13T03:39:11.956Z,17.95
2022-12-13T03:40:15.581Z,19.35
2022-12-13T03:41:31.600Z,20.75
2022-12-13T03:42:35.975Z,19.05
2022-12-13T03:43:42.928Z,17.56
2022-12-13T03:44:46.165Z,18.43
2022-12-13T03:45:52.150Z,18.06
2022-12-13T03:46:57.987Z,17.52
2022-12-13T03:48:05.364Z,17.57
2022-12-13T03:49:17.421Z,17.80
2022-12-13T03:50:27.097Z,17.02
2022-12-13T03:51:33.331Z,16.54
2022-12-13T03:52:36.744Z,15.92
2022-12-13T03:53:43.565Z,15.92
2022-12-13T03:54:47.560Z,16.50
2022-12-13T03:55:53.850Z,17.64
2022-12-13T03:56:58.239Z,16.56
2022-12-13T03:58:07.865Z,16.74
2022-12-13T03:59:12.350Z,17.13
2022-12-13T04:00:19.587Z,16.88
2022-12-13T04:01:25.513Z,16.27
2022-12-13T04:02:31.198Z,17.33
2022-12-13T04:03:37.893Z,18.35
2022-12-13T04:04:44.675Z,19.36
2022-12-13T04:05:50.726Z,18.86
2022-12-13T04:06:54.092Z,17.60
2022-12-13T04:08:02.363Z,17.20
2022-12-13T04:09:05.921Z,17.43
2022-12-13T04:10:26.459Z,17.28
2022-12-13T04:11:45.100Z,17.43
2022-12-13T04:13:03.366Z,19.86
2022-12-13T04:14:06.695Z,19.62
2022-12-13T04:15:14.257Z,17.88
2022-12-13T04:16:18.285Z,18.97
2022-12-13T04:17:24.308Z,17.86
2022-12-13T04:18:27.660Z,18.42
2022-12-13T04:19:33.994Z,19.32
2022-12-13T04:20:40.722Z,19.62
2022-12-13T04:21:46.653Z,19.19
2022-12-13T04:22:50.103Z,19.63
2022-12-13T04:23:56.023Z,19.89
2022-12-13T04:25:05.523Z,19.88
2022-12-13T04:26:14.598Z,20.54
2022-12-13T04:27:17.932Z,18.92
2022-12-13T04:28:23.943Z,19.03
2022-12-13T04:29:34.451Z,17.31
2022-12-13T04:30:41.350Z,16.24
2022-12-13T04:31:45.545Z,16.47
2022-12-13T04:32:52.005Z,17.57
2022-12-13T04:33:55.251Z,18.02
2022-12-13T04:35:01.751Z,18.01
2022-12-13T04:36:11.589Z,17.50
2022-12-13T04:37:15.932Z,17.64
2022-12-13T04:38:23.179Z,17.77
2022-12-13T04:39:34.445Z,17.05
2022-12-13T04:40:38.093Z,17.00
2022-12-13T04:41:44.254Z,17.30
2022-12-13T04:42:48.486Z,15.60
2022-12-13T04:44:00.484Z,17.09
2022-12-13T04:45:04.384Z,17.52
2022-12-13T04:46:10.429Z,18.53
2022-12-13T04:47:13.664Z,18.34
2022-12-13T04:48:30.989Z,17.78
2022-12-13T04:49:35.392Z,17.54
2022-12-13T04:50:41.234Z,16.68
2022-12-13T04:51:47.586Z,16.96
2022-12-13T04:52:53.991Z,17.23
2022-12-13T04:54:23.526Z,17.69
2022-12-13T04:55:24.175Z,16.47
2022-12-13T04:56:27.592Z,16.24
2022-12-13T04:57:33.668Z,16.95
2022-12-13T04:58:37.137Z,17.49
2022-12-13T04:59:47.211Z,15.95
2022-12-13T05:00:53.199Z,14.70
2022-12-13T05:01:56.612Z,14.65
2022-12-13T05:03:02.559Z,15.11
2022-12-13T05:04:08.818Z,15.55
2022-12-13T05:05:13.380Z,15.72
2022-12-13T05:06:26.824Z,15.62
2022-12-13T05:07:36.443Z,14.65
2022-12-13T05:08:49.088Z,13.69
2022-12-13T05:09:52.452Z,13.98
2022-12-13T05:10:59.232Z,14.82
2022-12-13T05:12:02.531Z,15.59
2022-12-13T05:13:10.295Z,19.68
2022-12-13T05:14:13.618Z,18.03
2022-12-13T05:15:19.881Z,14.81
2022-12-13T05:16:24.683Z,15.08
2022-12-13T05:17:30.815Z,15.61
2022-12-13T05:18:36.658Z,14.07
2022-12-13T05:19:42.615Z,13.34
2022-12-13T05:20:48.584Z,13.57
2022-12-13T05:21:52.773Z,14.52
2022-12-13T05:23:02.220Z,14.75
2022-12-13T05:24:10.604Z,13.71
2022-12-13T05:25:16.797Z,14.36
2022-12-13T05:26:23.129Z,14.78
2022-12-13T05:27:29.998Z,15.28
2022-12-13T05:28:34.816Z,14.01
2022-12-13T05:29:41.863Z,14.06
2022-12-13T05:30:45.848Z,14.15
2022-12-13T05:31:51.856Z,14.29
2022-12-13T05:32:59.059Z,15.15
2022-12-13T05:34:02.507Z,15.67
2022-12-13T05:35:10.308Z,15.68
2022-12-13T05:36:16.187Z,16.55
2022-12-13T05:37:22.139Z,17.15
2022-12-13T05:38:30.061Z,17.65
2022-12-13T05:39:35.934Z,18.73
2022-12-13T05:40:39.259Z,18.15
2022-12-13T05:41:45.799Z,18.74
2022-12-13T05:42:51.848Z,19.27
2022-12-13T05:44:05.695Z,20.15
2022-12-13T05:45:13.735Z,19.32
2022-12-13T05:46:17.453Z,19.46
2022-12-13T05:47:23.373Z,18.68
2022-12-13T05:48:26.711Z,18.91
2022-12-13T05:49:33.651Z,20.76
2022-12-13T05:50:38.511Z,20.62
2022-12-13T05:51:44.788Z,21.16
2022-12-13T05:52:48.097Z,21.84
2022-12-13T05:53:56.632Z,21.80
2022-12-13T05:55:03.401Z,21.91
2022-12-13T05:56:10.200Z,21.62
2022-12-13T05:57:16.676Z,23.10
2022-12-13T05:58:23.266Z,24.21
2022-12-13T05:59:29.561Z,24.00
2022-12-13T06:00:33.734Z,25.15
2022-12-13T06:01:44.084Z,25.12
2022-12-13T06:02:47.577Z,28.05
2022-12-13T06:03:55.843Z,26.75
2022-12-13T06:05:03.187Z,26.68
2022-12-13T06:06:14.060Z,26.40
2022-12-13T06:07:17.585Z,23.34
2022-12-13T06:08:24.381Z,26.07
2022-12-13T06:09:39.990Z,26.62
2022-12-13T06:10:46.253Z,26.70
2022-12-13T06:12:01.104Z,27.17
2022-12-13T06:13:32.203Z,29.43
2022-12-13T06:14:33.957Z,28.70
2022-12-13T06:15:44.576Z,28.82
2022-12-13T06:16:50.813Z,27.07
2022-12-13T06:17:55.053Z,30.42
2022-12-13T06:19:04.331Z,31.31
2022-12-13T06:20:23.482Z,35.88
2022-12-13T06:21:40.759Z,35.94
2022-12-13T06:22:49.695Z,34.82
2022-12-13T06:23:56.405Z,35.52
2022-12-13T06:25:02.916Z,35.05
2022-12-13T06:26:11.213Z,38.82
2022-12-13T06:27:17.020Z,38.53
2022-12-13T06:28:23.467Z,38.44
2022-12-13T06:29:30.335Z,32.33
2022-12-13T06:30:33.752Z,35.89
2022-12-13T06:31:39.946Z,36.85
2022-12-13T06:32:45.986Z,33.05
2022-12-13T06:33:52.155Z,30.97
2022-12-13T06:34:58.914Z,32.29
2022-12-13T06:36:08.047Z,33.01
2022-12-13T06:37:17.303Z,30.45
2022-12-13T06:38:31.126Z,30.94
2022-12-13T06:39:38.544Z,31.58
2022-12-13T06:40:47.934Z,32.10
2022-12-13T06:41:54.736Z,32.70
2022-12-13T06:43:01.083Z,32.80
2022-12-13T06:44:05.419Z,31.79
2022-12-13T06:45:12.336Z,31.94
2022-12-13T06:46:19.270Z,34.42
2022-12-13T06:47:31.520Z,36.58
2022-12-13T06:48:40.752Z,30.99
2022-12-13T06:49:44.706Z,28.54
2022-12-13T06:50:51.463Z,29.20
2022-12-13T06:51:58.180Z,30.07
2022-12-13T06:53:04.250Z,31.21
2022-12-13T06:54:10.359Z,32.99
2022-12-13T06:55:24.107Z,34.62
2022-12-13T06:56:33.909Z,29.11
2022-12-13T06:57:37.979Z,31.91
2022-12-13T06:58:47.027Z,31.47
2022-12-13T06:59:53.431Z,30.35
2022-12-13T07:01:06.731Z,30.50
2022-12-13T07:02:25.529Z,30.54
2022-12-13T07:03:32.961Z,34.44
2022-12-13T07:04:38.840Z,31.95
2022-12-13T07:05:45.392Z,31.86
2022-12-13T07:06:51.462Z,28.13
2022-12-13T07:07:57.893Z,27.83
2022-12-13T07:09:04.695Z,26.62
2022-12-13T07:10:22.787Z,25.53
2022-12-13T07:11:34.977Z,23.30
2022-12-13T07:12:40.962Z,23.50
2022-12-13T07:13:48.222Z,25.11
2022-12-13T07:14:56.267Z,25.88
2022-12-13T07:16:02.274Z,27.18
2022-12-13T07:17:05.919Z,24.96
2022-12-13T07:18:12.120Z,24.91
2022-12-13T07:19:23.968Z,23.98
2022-12-13T07:20:31.273Z,22.54
2022-12-13T07:21:39.318Z,21.54
2022-12-13T07:22:49.188Z,22.89
2022-12-13T07:23:57.573Z,23.31
2022-12-13T07:25:00.924Z,22.52
2022-12-13T07:26:10.256Z,23.56
2022-12-13T07:27:16.211Z,23.37
2022-12-13T07:28:22.640Z,23.21
2022-12-13T07:29:26.040Z,24.27
2022-12-13T07:30:32.237Z,23.24
2022-12-13T07:31:39.770Z,23.76
2022-12-13T07:32:45.887Z,22.45
2022-12-13T07:33:51.865Z,22.06
2022-12-13T07:34:55.219Z,21.86
2022-12-13T07:36:04.923Z,22.11
2022-12-13T07:37:30.447Z,21.34
2022-12-13T07:38:37.291Z,21.81
2022-12-13T07:39:40.633Z,22.78
2022-12-13T07:40:46.511Z,23.68
2022-12-13T07:41:52.557Z,24.22
2022-12-13T07:42:59.386Z,23.77
2022-12-13T07:44:05.332Z,23.06
2022-12-13T07:45:12.713Z,24.39
2022-12-13T07:46:23.475Z,31.67
2022-12-13T07:47:39.079Z,33.37
2022-12-13T07:48:47.129Z,33.49
2022-12-13T07:49:53.100Z,34.42
2022-12-13T07:51:07.143Z,37.35
2022-12-13T07:52:14.587Z,40.99
2022-12-13T07:53:21.054Z,37.29
2022-12-13T07:54:28.162Z,37.02
2022-12-13T07:55:34.282Z,45.92
2022-12-13T07:56:41.263Z,45.48
2022-12-13T07:57:47.123Z,48.07
2022-12-13T07:58:55.696Z,50.20
2022-12-13T08:00:02.635Z,50.65
2022-12-13T08:01:18.776Z,45.03
2022-12-13T08:02:24.795Z,41.65
2022-12-13T08:03:31.224Z,38.98
2022-12-13T08:04:38.100Z,38.90
2022-12-13T08:05:45.655Z,42.24
2022-12-13T08:06:51.966Z,48.74
2022-12-13T08:07:58.022Z,53.32
2022-12-13T08:09:04.049Z,54.90
2022-12-13T08:10:10.799Z,58.33
2022-12-13T08:11:19.224Z,53.70
2022-12-13T08:12:25.353Z,53.16
2022-12-13T08:13:31.366Z,47.98
2022-12-13T08:14:39.874Z,56.04
2022-12-13T08:15:45.945Z,54.67
2022-12-13T08:16:52.855Z,57.24
2022-12-13T08:18:01.113Z,50.16
2022-12-13T08:19:10.365Z,64.59
2022-12-13T08:20:13.729Z,70.19
2022-12-13T08:21:53.263Z,62.64
2022-12-13T08:23:02.115Z,53.62
2022-12-13T08:24:15.308Z,65.58
2022-12-13T08:25:21.821Z,80.35
2022-12-13T08:26:25.270Z,96.05
2022-12-13T08:27:31.464Z,92.00
2022-12-13T08:28:38.892Z,112.34
2022-12-13T08:29:47.664Z,87.18
2022-12-13T08:30:55.556Z,54.21
2022-12-13T08:32:01.806Z,53.74
2022-12-13T08:33:08.056Z,58.89
2022-12-13T08:34:14.804Z,64.89
2022-12-13T08:35:21.077Z,59.77
2022-12-13T08:36:27.570Z,61.45
2022-12-13T08:37:30.865Z,62.86
2022-12-13T08:38:36.844Z,68.68
2022-12-13T08:39:44.770Z,66.20
2022-12-13T08:40:51.664Z,54.21
2022-12-13T08:41:57.722Z,51.87
2022-12-13T08:43:03.833Z,54.10
2022-12-13T08:44:10.006Z,49.79
2022-12-13T08:45:19.561Z,49.90
2022-12-13T08:46:25.688Z,52.14
2022-12-13T08:47:32.733Z,50.79
2022-12-13T08:48:44.895Z,48.78
2022-12-13T08:49:48.558Z,57.09
2022-12-13T08:50:55.456Z,60.22
2022-12-13T08:52:02.923Z,56.47
2022-12-13T08:53:09.255Z,57.53
2022-12-13T08:54:31.111Z,47.33
2022-12-13T08:55:37.845Z,51.75
2022-12-13T08:56:45.064Z,56.35
2022-12-13T08:57:51.147Z,63.19
2022-12-13T08:58:58.224Z,64.83
2022-12-13T09:00:04.180Z,97.89
2022-12-13T09:01:13.746Z,109.99
2022-12-13T09:02:20.772Z,104.91
2022-12-13T09:03:26.859Z,103.52
2022-12-13T09:04:32.993Z,105.20
2022-12-13T09:05:38.953Z,76.94
2022-12-13T09:06:46.234Z,60.87
2022-12-13T09:07:58.441Z,60.89
2022-12-13T09:09:08.187Z,59.96
2022-12-13T09:10:27.053Z,55.69
2022-12-13T09:11:39.883Z,64.14
2022-12-13T09:12:46.823Z,64.19
2022-12-13T09:13:53.667Z,59.44
2022-12-13T09:15:23.017Z,57.15
2022-12-13T09:16:35.652Z,59.12
2022-12-13T09:17:42.242Z,57.38
2022-12-13T09:18:55.102Z,54.37
2022-12-13T09:20:02.892Z,57.35
2022-12-13T09:21:22.476Z,55.25
2022-12-13T09:22:38.156Z,51.92
2022-12-13T09:23:53.141Z,53.94
2022-12-13T09:25:15.069Z,56.24
2022-12-13T09:26:38.382Z,54.70
2022-12-13T09:27:44.617Z,57.25
2022-12-13T09:28:51.382Z,58.19
2022-12-13T09:29:57.679Z,54.23
2022-12-13T09:31:04.707Z,51.97
2022-12-13T09:32:13.432Z,53.36
2022-12-13T09:33:30.191Z,53.80
2022-12-13T09:34:37.052Z,52.99
2022-12-13T09:35:44.975Z,53.52
2022-12-13T09:36:51.890Z,55.83
2022-12-13T09:37:59.186Z,52.95
2022-12-13T09:39:05.343Z,51.55
2022-12-13T09:40:25.374Z,50.08
2022-12-13T09:41:41.370Z,49.56
2022-12-13T09:43:12.374Z,47.63
2022-12-13T09:44:32.294Z,46.49
2022-12-13T09:45:50.909Z,47.13
2022-12-13T09:47:02.668Z,45.43
2022-12-13T09:48:14.088Z,44.39
2022-12-13T09:49:37.470Z,51.30
2022-12-13T09:50:51.564Z,45.18
2022-12-13T09:52:21.325Z,39.79
2022-12-13T09:53:33.910Z,40.70
2022-12-13T09:54:48.255Z,46.09
2022-12-13T09:56:09.936Z,44.73
2022-12-13T09:57:32.061Z,47.49
2022-12-13T09:58:40.634Z,48.89
2022-12-13T09:59:47.043Z,57.50
2022-12-13T10:00:58.081Z,73.17
2022-12-13T10:02:20.738Z,87.97
2022-12-13T10:03:31.009Z,111.95
2022-12-13T10:04:37.052Z,86.41
2022-12-13T10:05:47.332Z,69.11
2022-12-13T10:06:57.018Z,75.57
2022-12-13T10:08:12.306Z,64.21
2022-12-13T10:09:19.050Z,47.71
2022-12-13T10:10:26.106Z,46.57
2022-12-13T10:11:33.560Z,50.58
2022-12-13T10:12:40.573Z,45.38
2022-12-13T10:13:54.915Z,45.23
2022-12-13T10:15:06.374Z,47.55
2022-12-13T10:16:36.312Z,44.14
2022-12-13T10:17:51.538Z,43.86
2022-12-13T10:19:28.498Z,43.18
2022-12-13T10:20:38.227Z,47.80
2022-12-13T10:21:48.856Z,48.00
2022-12-13T10:23:31.415Z,41.51
2022-12-13T10:24:32.942Z,44.95
2022-12-13T10:25:54.981Z,47.89
2022-12-13T10:27:21.651Z,62.02
2022-12-13T10:28:34.007Z,62.04
2022-12-13T10:30:05.950Z,58.29
2022-12-13T10:31:18.391Z,43.53
2022-12-13T10:32:22.778Z,57.28
2022-12-13T10:33:34.968Z,58.55
2022-12-13T10:34:44.698Z,64.02
2022-12-13T10:36:11.263Z,58.89
2022-12-13T10:37:33.441Z,53.75
2022-12-13T10:38:43.944Z,57.44
2022-12-13T10:39:48.102Z,41.53
2022-12-13T10:40:54.258Z,43.52
2022-12-13T10:42:09.249Z,38.26
2022-12-13T10:43:18.918Z,37.89
2022-12-13T10:44:27.403Z,39.01
2022-12-13T10:45:31.679Z,49.13
2022-12-13T10:46:40.720Z,43.76
2022-12-13T10:47:48.763Z,49.73
2022-12-13T10:48:56.142Z,49.48
2022-12-13T10:50:06.737Z,51.04
2022-12-13T10:51:18.021Z,33.55
2022-12-13T10:52:32.061Z,31.48
2022-12-13T10:53:47.861Z,37.42
2022-12-13T10:54:52.854Z,34.92
2022-12-13T10:56:09.400Z,44.50
2022-12-13T10:57:13.678Z,53.84
2022-12-13T10:58:23.642Z,42.25
2022-12-13T10:59:36.890Z,28.33
2022-12-13T11:00:47.809Z,26.61
2022-12-13T11:01:51.893Z,30.60
2022-12-13T11:02:58.895Z,32.17
2022-12-13T11:04:08.427Z,33.42
2022-12-13T11:05:34.149Z,36.25
2022-12-13T11:06:47.256Z,31.91
2022-12-13T11:07:55.477Z,30.35
2022-12-13T11:09:23.182Z,28.97
2022-12-13T11:10:32.591Z,27.57
2022-12-13T11:11:38.632Z,24.30
2022-12-13T11:12:46.054Z,31.08
2022-12-13T11:14:01.791Z,36.73
2022-12-13T11:15:23.108Z,36.99
2022-12-13T11:16:35.849Z,36.92
2022-12-13T11:17:54.665Z,38.52
2022-12-13T11:19:05.545Z,44.19
2022-12-13T11:20:24.490Z,44.82
2022-12-13T11:21:39.433Z,39.41
2022-12-13T11:22:46.329Z,34.19
2022-12-13T11:23:52.403Z,41.48
2022-12-13T11:25:11.164Z,50.76
2022-12-13T11:26:25.916Z,45.67
2022-12-13T11:28:01.242Z,46.10
2022-12-13T11:29:44.937Z,41.16
2022-12-13T11:31:12.439Z,44.41
2022-12-13T11:32:44.453Z,39.77
2022-12-13T11:34:08.435Z,38.52
2022-12-13T11:35:28.605Z,48.58
2022-12-13T11:36:52.288Z,51.96
2022-12-13T11:38:19.745Z,51.61
2022-12-13T11:39:36.242Z,50.73
2022-12-13T11:40:52.413Z,62.32
2022-12-13T11:42:14.006Z,56.39
2022-12-13T11:43:40.569Z,43.91
2022-12-13T11:45:03.116Z,46.58
2022-12-13T11:46:22.940Z,57.16
2022-12-13T11:47:40.753Z,49.20
2022-12-13T11:48:59.536Z,55.39
2022-12-13T11:50:33.087Z,52.04
2022-12-13T11:51:51.972Z,58.85
2022-12-13T11:53:20.111Z,55.53
2022-12-13T11:54:41.263Z,42.44
2022-12-13T11:55:58.361Z,46.95
2022-12-13T11:57:21.712Z,39.84
2022-12-13T12:00:33.858Z,44.95
2022-12-13T12:01:53.069Z,41.33
2022-12-13T12:03:16.321Z,40.24
2022-12-13T12:04:37.622Z,41.01
2022-12-13T12:05:55.938Z,51.37
2022-12-13T12:07:32.539Z,44.91
2022-12-13T12:08:49.616Z,39.82
2022-12-13T12:10:12.678Z,42.02
2022-12-13T12:11:34.312Z,41.24
2022-12-13T12:12:45.972Z,43.49
2022-12-13T12:14:02.115Z,44.12
2022-12-13T12:15:18.477Z,43.43
2022-12-13T12:16:46.487Z,45.07
2022-12-13T12:17:52.771Z,43.48
2022-12-13T12:19:01.414Z,47.91
2022-12-13T12:20:23.272Z,41.42
2022-12-13T12:22:12.691Z,41.89
2022-12-13T12:23:31.586Z,39.77
2022-12-13T12:25:03.545Z,44.52
2022-12-13T12:26:17.812Z,37.38
2022-12-13T12:27:43.713Z,44.90
2022-12-13T12:29:24.052Z,40.97
2022-12-13T12:30:51.841Z,39.04
2022-12-13T12:32:13.965Z,36.99
2022-12-13T12:33:37.966Z,36.49
2022-12-13T12:35:04.624Z,34.02
2022-12-13T12:36:43.852Z,35.84
2022-12-13T12:38:12.967Z,40.92
2022-12-13T12:39:54.288Z,32.11
2022-12-13T12:41:27.532Z,39.08
2022-12-13T12:43:15.310Z,40.77
2022-12-13T12:44:47.872Z,36.66
2022-12-13T12:46:20.381Z,34.99
2022-12-13T12:48:41.310Z,30.63
2022-12-13T12:49:55.167Z,30.45
2022-12-13T12:51:13.962Z,32.26
2022-12-13T12:52:34.997Z,29.73
2022-12-13T12:53:54.149Z,25.19
2022-12-13T12:55:21.838Z,27.03
2022-12-13T12:56:48.254Z,29.51
2022-12-13T12:58:18.637Z,24.47
2022-12-13T12:59:42.438Z,24.27
2022-12-13T13:01:11.271Z,22.33
2022-12-13T13:02:29.591Z,21.66
2022-12-13T13:03:44.658Z,21.27
2022-12-13T13:05:00.987Z,21.82
2022-12-13T13:06:18.984Z,25.41
2022-12-13T13:07:39.996Z,35.53
2022-12-13T13:08:55.616Z,40.97
2022-12-13T13:10:25.923Z,32.56
2022-12-13T13:11:43.027Z,37.21
2022-12-13T13:12:50.512Z,39.68
2022-12-13T13:14:28.833Z,35.42
2022-12-13T13:15:59.535Z,38.52
2022-12-13T13:17:50.529Z,40.34
2022-12-13T13:18:56.163Z,40.72
2022-12-13T13:20:23.587Z,33.08
2022-12-13T13:21:53.833Z,33.26
2022-12-13T13:23:39.868Z,35.25
2022-12-13T13:24:31.658Z,44.74
2022-12-13T13:26:07.720Z,38.45
2022-12-13T13:27:32.751Z,37.41
2022-12-13T13:28:40.652Z,34.22
2022-12-13T13:29:47.817Z,36.50
2022-12-13T13:31:10.450Z,40.56
2022-12-13T13:32:34.702Z,34.47
2022-12-13T13:33:53.520Z,43.87
2022-12-13T13:35:53.897Z,39.76
2022-12-13T13:37:02.438Z,41.98
2022-12-13T13:39:01.644Z,40.84
2022-12-13T13:40:37.399Z,39.54
2022-12-13T13:42:20.266Z,51.68
2022-12-13T13:43:34.652Z,80.32
2022-12-13T13:45:27.317Z,59.05
2022-12-13T13:46:31.066Z,79.06
2022-12-13T13:47:46.648Z,73.59
2022-12-13T13:49:12.155Z,73.67
2022-12-13T13:51:28.060Z,55.32
2022-12-13T13:52:59.464Z,58.43
2022-12-13T13:55:20.501Z,62.52
2022-12-13T13:56:50.192Z,61.74
2022-12-13T13:58:40.593Z,67.03
2022-12-13T14:00:23.356Z,54.12
2022-12-13T14:02:13.491Z,58.78
2022-12-13T14:04:24.672Z,55.59
2022-12-13T14:06:26.547Z,60.07
2022-12-13T14:08:20.573Z,57.99
2022-12-13T14:10:17.887Z,57.45
2022-12-13T14:12:25.732Z,60.41
2022-12-13T14:14:38.683Z,60.89
2022-12-13T14:16:35.913Z,53.29
2022-12-13T14:18:32.897Z,60.69
2022-12-13T14:20:31.919Z,60.78
2022-12-13T14:22:05.723Z,60.24
2022-12-13T14:23:32.238Z,60.88
2022-12-13T14:24:56.981Z,61.91
2022-12-13T14:26:43.894Z,67.22
2022-12-13T14:28:04.433Z,70.86
2022-12-13T14:29:24.174Z,69.50
2022-12-13T14:30:31.568Z,72.52
2022-12-13T14:31:44.744Z,74.89
2022-12-13T14:32:53.479Z,88.59
2022-12-13T14:34:03.287Z,85.91
2022-12-13T14:35:25.587Z,87.33
2022-12-13T14:36:36.711Z,94.18
2022-12-13T14:37:42.873Z,95.45
2022-12-13T14:38:49.002Z,101.96
2022-12-13T14:39:55.325Z,95.08
2022-12-13T14:41:06.304Z,101.02
2022-12-13T14:42:29.675Z,109.96
2022-12-13T14:43:38.822Z,105.00
2022-12-13T14:44:47.522Z,111.66
2022-12-13T14:45:59.819Z,116.33
2022-12-13T14:47:11.477Z,115.64
2022-12-13T14:48:28.860Z,107.20
2022-12-13T14:49:41.923Z,120.10
2022-12-13T14:50:56.725Z,135.36
2022-12-13T14:52:11.251Z,133.92
2022-12-13T14:53:30.717Z,136.71
2022-12-13T14:54:50.341Z,138.27
2022-12-13T14:56:27.534Z,127.84
2022-12-13T14:57:38.283Z,142.35
2022-12-13T14:58:58.009Z,151.62
2022-12-13T15:00:27.614Z,132.77
2022-12-13T15:01:37.274Z,121.94
2022-12-13T15:02:55.834Z,112.96
2022-12-13T15:04:23.102Z,109.45
2022-12-13T15:05:33.361Z,112.87
2022-12-13T15:06:36.916Z,105.52
2022-12-13T15:07:46.268Z,105.26
2022-12-13T15:08:52.649Z,101.87
2022-12-13T15:10:04.688Z,107.86
2022-12-13T15:11:13.459Z,110.32
2022-12-13T15:12:25.148Z,103.26
2022-12-13T15:13:41.095Z,100.65
2022-12-13T15:14:56.595Z,105.32
2022-12-13T15:16:12.684Z,109.17
2022-12-13T15:17:33.807Z,122.70
2022-12-13T15:18:50.510Z,127.99
2022-12-13T15:20:01.005Z,126.63
2022-12-13T15:21:28.710Z,118.51
2022-12-13T15:22:38.747Z,103.23
2022-12-13T15:23:49.699Z,102.61
2022-12-13T15:25:18.388Z,100.59
2022-12-13T15:26:30.265Z,101.06
2022-12-13T15:27:37.005Z,107.53
2022-12-13T15:28:44.785Z,105.31
2022-12-13T15:29:54.521Z,100.18
2022-12-13T15:31:07.355Z,106.78
2022-12-13T15:32:19.508Z,112.97
2022-12-13T15:33:34.395Z,121.35
2022-12-13T15:34:43.487Z,124.26
2022-12-13T15:35:53.395Z,118.99
2022-12-13T15:37:01.125Z,110.15
2022-12-13T15:38:08.543Z,107.33
2022-12-13T15:39:18.514Z,116.87
2022-12-13T15:40:26.265Z,111.01
2022-12-13T15:41:37.168Z,102.68
2022-12-13T15:42:50.336Z,111.33
2022-12-13T15:44:04.221Z,114.23
2022-12-13T15:45:27.375Z,109.44